sensor_id;sensor_type;location;lat;lon;timestamp;P1;durP1;ratioP1;P2;durP2;ratioP2
70026;SDS011;57506;50.092;15.804;2023-04-24T00:00:33;18.73;;;10.68;;
70026;SDS011;57506;50.092;15.804;2023-04-24T00:02:58;16.00;;;10.23;;
70026;SDS011;57506;50.092;15.804;2023-04-24T00:05:24;14.82;;;9.90;;
70026;SDS011;57506;50.092;15.804;2023-04-24T00:07:50;15.03;;;10.40;;
70026;SDS011;57506;50.092;15.804;2023-04-24T00:10:19;15.85;;;9.70;;
70026;SDS011;57506;50.092;15.804;2023-04-24T00:12:45;14.60;;;9.50;;
70026;SDS011;57506;50.092;15.804;2023-04-24T00:15:10;14.88;;;9.48;;
70026;SDS011;57506;50.092;15.804;2023-04-24T00:17:36;14.90;;;9.50;;
70026;SDS011;57506;50.092;15.804;2023-04-24T00:20:02;15.10;;;9.57;;
70026;SDS011;57506;50.092;15.804;2023-04-24T00:22:29;16.93;;;10.13;;
70026;SDS011;57506;50.092;15.804;2023-04-24T00:24:55;15.25;;;10.48;;
70026;SDS011;57506;50.092;15.804;2023-04-24T00:27:21;15.98;;;10.63;;
70026;SDS011;57506;50.092;15.804;2023-04-24T00:29:47;15.10;;;10.37;;
70026;SDS011;57506;50.092;15.804;2023-04-24T00:32:12;15.93;;;10.90;;
70026;SDS011;57506;50.092;15.804;2023-04-24T00:34:38;15.32;;;10.05;;
70026;SDS011;57506;50.092;15.804;2023-04-24T00:37:04;12.88;;;9.27;;
70026;SDS011;57506;50.092;15.804;2023-04-24T00:39:30;14.27;;;9.27;;
70026;SDS011;57506;50.092;15.804;2023-04-24T00:41:56;15.95;;;10.73;;
70026;SDS011;57506;50.092;15.804;2023-04-24T00:44:21;17.35;;;10.82;;
70026;SDS011;57506;50.092;15.804;2023-04-24T00:46:47;13.30;;;9.80;;
70026;SDS011;57506;50.092;15.804;2023-04-24T00:49:18;13.85;;;9.20;;
70026;SDS011;57506;50.092;15.804;2023-04-24T00:51:44;14.35;;;9.48;;
70026;SDS011;57506;50.092;15.804;2023-04-24T00:54:11;17.33;;;10.17;;
70026;SDS011;57506;50.092;15.804;2023-04-24T00:56:37;15.57;;;9.48;;
70026;SDS011;57506;50.092;15.804;2023-04-24T00:59:02;15.90;;;8.70;;
70026;SDS011;57506;50.092;15.804;2023-04-24T01:01:29;17.67;;;9.47;;
70026;SDS011;57506;50.092;15.804;2023-04-24T01:03:55;15.25;;;9.30;;
70026;SDS011;57506;50.092;15.804;2023-04-24T01:06:22;15.30;;;9.40;;
70026;SDS011;57506;50.092;15.804;2023-04-24T01:08:52;13.73;;;9.57;;
70026;SDS011;57506;50.092;15.804;2023-04-24T01:11:17;15.57;;;10.10;;
70026;SDS011;57506;50.092;15.804;2023-04-24T01:13:43;16.10;;;10.80;;
70026;SDS011;57506;50.092;15.804;2023-04-24T01:16:10;17.08;;;10.90;;
70026;SDS011;57506;50.092;15.804;2023-04-24T01:18:35;14.37;;;9.47;;
70026;SDS011;57506;50.092;15.804;2023-04-24T01:21:02;16.40;;;10.23;;
70026;SDS011;57506;50.092;15.804;2023-04-24T01:23:29;16.63;;;10.90;;
70026;SDS011;57506;50.092;15.804;2023-04-24T01:25:55;16.07;;;10.40;;
70026;SDS011;57506;50.092;15.804;2023-04-24T01:28:21;17.40;;;12.30;;
70026;SDS011;57506;50.092;15.804;2023-04-24T01:30:46;19.73;;;12.80;;
70026;SDS011;57506;50.092;15.804;2023-04-24T01:33:12;18.13;;;12.65;;
70026;SDS011;57506;50.092;15.804;2023-04-24T01:35:38;16.30;;;11.70;;
70026;SDS011;57506;50.092;15.804;2023-04-24T01:38:04;23.13;;;11.60;;
70026;SDS011;57506;50.092;15.804;2023-04-24T01:40:30;17.60;;;11.38;;
70026;SDS011;57506;50.092;15.804;2023-04-24T01:42:57;18.87;;;11.50;;
70026;SDS011;57506;50.092;15.804;2023-04-24T01:45:22;20.35;;;10.88;;
70026;SDS011;57506;50.092;15.804;2023-04-24T01:47:48;17.07;;;10.67;;
70026;SDS011;57506;50.092;15.804;2023-04-24T01:50:14;16.07;;;10.57;;
70026;SDS011;57506;50.092;15.804;2023-04-24T01:52:40;15.52;;;10.07;;
70026;SDS011;57506;50.092;15.804;2023-04-24T01:55:06;16.60;;;11.37;;
70026;SDS011;57506;50.092;15.804;2023-04-24T01:57:32;17.52;;;11.00;;
70026;SDS011;57506;50.092;15.804;2023-04-24T01:59:58;19.70;;;10.90;;
70026;SDS011;57506;50.092;15.804;2023-04-24T02:02:24;18.73;;;12.00;;
70026;SDS011;57506;50.092;15.804;2023-04-24T02:04:52;18.17;;;11.60;;
70026;SDS011;57506;50.092;15.804;2023-04-24T02:07:20;18.60;;;12.00;;
70026;SDS011;57506;50.092;15.804;2023-04-24T02:09:46;17.23;;;12.20;;
70026;SDS011;57506;50.092;15.804;2023-04-24T02:12:11;20.63;;;11.90;;
70026;SDS011;57506;50.092;15.804;2023-04-24T02:14:37;19.20;;;12.03;;
70026;SDS011;57506;50.092;15.804;2023-04-24T02:17:02;20.47;;;12.47;;
70026;SDS011;57506;50.092;15.804;2023-04-24T02:19:28;16.73;;;11.98;;
70026;SDS011;57506;50.092;15.804;2023-04-24T02:21:54;23.00;;;12.53;;
70026;SDS011;57506;50.092;15.804;2023-04-24T02:24:19;17.83;;;11.43;;
70026;SDS011;57506;50.092;15.804;2023-04-24T02:26:45;16.27;;;10.90;;
70026;SDS011;57506;50.092;15.804;2023-04-24T02:29:10;16.33;;;12.07;;
70026;SDS011;57506;50.092;15.804;2023-04-24T02:31:36;22.20;;;11.77;;
70026;SDS011;57506;50.092;15.804;2023-04-24T02:34:01;19.27;;;12.13;;
70026;SDS011;57506;50.092;15.804;2023-04-24T02:36:27;19.93;;;12.00;;
70026;SDS011;57506;50.092;15.804;2023-04-24T02:38:52;17.13;;;11.77;;
70026;SDS011;57506;50.092;15.804;2023-04-24T02:41:18;16.60;;;11.50;;
70026;SDS011;57506;50.092;15.804;2023-04-24T02:43:44;19.38;;;11.90;;
70026;SDS011;57506;50.092;15.804;2023-04-24T02:46:10;18.57;;;11.80;;
70026;SDS011;57506;50.092;15.804;2023-04-24T02:48:35;17.50;;;12.97;;
70026;SDS011;57506;50.092;15.804;2023-04-24T02:51:01;19.23;;;12.00;;
70026;SDS011;57506;50.092;15.804;2023-04-24T02:53:26;19.90;;;12.33;;
70026;SDS011;57506;50.092;15.804;2023-04-24T02:55:52;19.50;;;12.07;;
70026;SDS011;57506;50.092;15.804;2023-04-24T02:58:17;19.20;;;12.55;;
70026;SDS011;57506;50.092;15.804;2023-04-24T03:00:45;20.42;;;12.48;;
70026;SDS011;57506;50.092;15.804;2023-04-24T03:03:11;18.97;;;12.87;;
70026;SDS011;57506;50.092;15.804;2023-04-24T03:05:37;17.95;;;12.93;;
70026;SDS011;57506;50.092;15.804;2023-04-24T03:08:02;24.87;;;13.77;;
70026;SDS011;57506;50.092;15.804;2023-04-24T03:10:28;21.23;;;13.67;;
70026;SDS011;57506;50.092;15.804;2023-04-24T03:12:53;21.90;;;13.88;;
70026;SDS011;57506;50.092;15.804;2023-04-24T03:15:20;25.08;;;15.00;;
70026;SDS011;57506;50.092;15.804;2023-04-24T03:17:45;26.17;;;13.83;;
70026;SDS011;57506;50.092;15.804;2023-04-24T03:20:11;23.07;;;14.63;;
70026;SDS011;57506;50.092;15.804;2023-04-24T03:22:37;21.40;;;15.45;;
70026;SDS011;57506;50.092;15.804;2023-04-24T03:25:02;21.20;;;15.13;;
70026;SDS011;57506;50.092;15.804;2023-04-24T03:27:28;21.52;;;14.55;;
70026;SDS011;57506;50.092;15.804;2023-04-24T03:29:54;23.00;;;14.77;;
70026;SDS011;57506;50.092;15.804;2023-04-24T03:32:23;20.27;;;13.00;;
70026;SDS011;57506;50.092;15.804;2023-04-24T03:34:49;21.10;;;13.70;;
70026;SDS011;57506;50.092;15.804;2023-04-24T03:37:15;18.20;;;12.80;;
70026;SDS011;57506;50.092;15.804;2023-04-24T03:39:41;19.05;;;12.68;;
70026;SDS011;57506;50.092;15.804;2023-04-24T03:42:07;20.50;;;12.53;;
70026;SDS011;57506;50.092;15.804;2023-04-24T03:44:33;17.37;;;11.30;;
70026;SDS011;57506;50.092;15.804;2023-04-24T03:46:59;16.38;;;11.30;;
70026;SDS011;57506;50.092;15.804;2023-04-24T03:49:25;14.77;;;10.43;;
70026;SDS011;57506;50.092;15.804;2023-04-24T03:51:50;17.42;;;10.82;;
70026;SDS011;57506;50.092;15.804;2023-04-24T03:54:17;16.27;;;11.15;;
70026;SDS011;57506;50.092;15.804;2023-04-24T03:56:43;15.70;;;10.67;;
70026;SDS011;57506;50.092;15.804;2023-04-24T03:59:08;15.60;;;10.38;;
70026;SDS011;57506;50.092;15.804;2023-04-24T04:01:34;16.47;;;10.63;;
70026;SDS011;57506;50.092;15.804;2023-04-24T04:04:02;16.90;;;11.20;;
70026;SDS011;57506;50.092;15.804;2023-04-24T04:06:28;15.98;;;10.82;;
70026;SDS011;57506;50.092;15.804;2023-04-24T04:08:55;15.17;;;10.73;;
70026;SDS011;57506;50.092;15.804;2023-04-24T04:11:21;16.77;;;11.13;;
70026;SDS011;57506;50.092;15.804;2023-04-24T04:13:47;17.15;;;10.27;;
70026;SDS011;57506;50.092;15.804;2023-04-24T04:16:13;15.97;;;10.67;;
70026;SDS011;57506;50.092;15.804;2023-04-24T04:18:39;13.70;;;9.43;;
70026;SDS011;57506;50.092;15.804;2023-04-24T04:21:04;14.33;;;10.27;;
70026;SDS011;57506;50.092;15.804;2023-04-24T04:23:30;15.32;;;10.10;;
70026;SDS011;57506;50.092;15.804;2023-04-24T04:25:57;20.33;;;10.45;;
70026;SDS011;57506;50.092;15.804;2023-04-24T04:28:22;13.77;;;10.03;;
70026;SDS011;57506;50.092;15.804;2023-04-24T04:30:49;15.27;;;10.20;;
70026;SDS011;57506;50.092;15.804;2023-04-24T04:33:19;18.90;;;9.93;;
70026;SDS011;57506;50.092;15.804;2023-04-24T04:35:45;16.48;;;10.00;;
70026;SDS011;57506;50.092;15.804;2023-04-24T04:38:14;17.55;;;10.10;;
70026;SDS011;57506;50.092;15.804;2023-04-24T04:40:40;13.97;;;9.43;;
70026;SDS011;57506;50.092;15.804;2023-04-24T04:43:05;14.15;;;9.82;;
70026;SDS011;57506;50.092;15.804;2023-04-24T04:45:31;17.80;;;9.70;;
70026;SDS011;57506;50.092;15.804;2023-04-24T04:47:58;15.73;;;10.07;;
70026;SDS011;57506;50.092;15.804;2023-04-24T04:50:26;14.35;;;9.77;;
70026;SDS011;57506;50.092;15.804;2023-04-24T04:52:52;14.55;;;9.75;;
70026;SDS011;57506;50.092;15.804;2023-04-24T04:55:17;14.17;;;9.63;;
70026;SDS011;57506;50.092;15.804;2023-04-24T04:57:45;14.23;;;9.70;;
70026;SDS011;57506;50.092;15.804;2023-04-24T05:00:13;13.75;;;10.02;;
70026;SDS011;57506;50.092;15.804;2023-04-24T05:02:40;17.13;;;9.95;;
70026;SDS011;57506;50.092;15.804;2023-04-24T05:05:06;14.47;;;8.70;;
70026;SDS011;57506;50.092;15.804;2023-04-24T05:07:32;15.60;;;9.10;;
70026;SDS011;57506;50.092;15.804;2023-04-24T05:09:58;15.15;;;8.57;;
70026;SDS011;57506;50.092;15.804;2023-04-24T05:12:23;14.17;;;8.00;;
70026;SDS011;57506;50.092;15.804;2023-04-24T05:14:49;14.30;;;8.93;;
70026;SDS011;57506;50.092;15.804;2023-04-24T05:17:15;12.82;;;8.60;;
70026;SDS011;57506;50.092;15.804;2023-04-24T05:19:41;13.43;;;8.73;;
70026;SDS011;57506;50.092;15.804;2023-04-24T05:22:08;13.13;;;7.88;;
70026;SDS011;57506;50.092;15.804;2023-04-24T05:24:34;12.82;;;8.27;;
70026;SDS011;57506;50.092;15.804;2023-04-24T05:27:00;15.83;;;8.30;;
70026;SDS011;57506;50.092;15.804;2023-04-24T05:29:27;12.00;;;8.00;;
70026;SDS011;57506;50.092;15.804;2023-04-24T05:31:55;14.48;;;8.25;;
70026;SDS011;57506;50.092;15.804;2023-04-24T05:34:21;12.93;;;9.50;;
70026;SDS011;57506;50.092;15.804;2023-04-24T05:36:47;12.47;;;9.60;;
70026;SDS011;57506;50.092;15.804;2023-04-24T05:39:13;16.15;;;9.88;;
70026;SDS011;57506;50.092;15.804;2023-04-24T05:41:39;13.50;;;9.25;;
70026;SDS011;57506;50.092;15.804;2023-04-24T05:44:04;17.80;;;9.87;;
70026;SDS011;57506;50.092;15.804;2023-04-24T05:46:30;15.67;;;9.80;;
70026;SDS011;57506;50.092;15.804;2023-04-24T05:48:55;13.98;;;9.50;;
70026;SDS011;57506;50.092;15.804;2023-04-24T05:51:21;15.30;;;10.00;;
70026;SDS011;57506;50.092;15.804;2023-04-24T05:53:46;14.73;;;10.53;;
70026;SDS011;57506;50.092;15.804;2023-04-24T05:56:12;16.98;;;10.35;;
70026;SDS011;57506;50.092;15.804;2023-04-24T05:58:37;14.20;;;10.17;;
70026;SDS011;57506;50.092;15.804;2023-04-24T06:01:03;16.00;;;10.83;;
70026;SDS011;57506;50.092;15.804;2023-04-24T06:03:28;20.80;;;11.35;;
70026;SDS011;57506;50.092;15.804;2023-04-24T06:05:54;20.47;;;11.93;;
70026;SDS011;57506;50.092;15.804;2023-04-24T06:08:20;17.95;;;11.30;;
70026;SDS011;57506;50.092;15.804;2023-04-24T06:10:45;19.63;;;10.73;;
70026;SDS011;57506;50.092;15.804;2023-04-24T06:13:11;14.60;;;10.17;;
70026;SDS011;57506;50.092;15.804;2023-04-24T06:15:37;20.00;;;11.13;;
70026;SDS011;57506;50.092;15.804;2023-04-24T06:18:03;17.38;;;11.35;;
70026;SDS011;57506;50.092;15.804;2023-04-24T06:20:28;17.27;;;11.23;;
70026;SDS011;57506;50.092;15.804;2023-04-24T06:22:54;16.75;;;10.45;;
70026;SDS011;57506;50.092;15.804;2023-04-24T06:25:20;15.60;;;10.40;;
70026;SDS011;57506;50.092;15.804;2023-04-24T06:27:46;16.23;;;11.52;;
70026;SDS011;57506;50.092;15.804;2023-04-24T06:30:11;15.65;;;10.88;;
70026;SDS011;57506;50.092;15.804;2023-04-24T06:32:37;16.73;;;11.87;;
70026;SDS011;57506;50.092;15.804;2023-04-24T06:35:03;15.98;;;11.45;;
70026;SDS011;57506;50.092;15.804;2023-04-24T06:37:29;17.23;;;11.33;;
70026;SDS011;57506;50.092;15.804;2023-04-24T06:39:55;15.98;;;10.75;;
70026;SDS011;57506;50.092;15.804;2023-04-24T06:42:20;16.13;;;11.00;;
70026;SDS011;57506;50.092;15.804;2023-04-24T06:44:47;20.67;;;11.60;;
70026;SDS011;57506;50.092;15.804;2023-04-24T06:47:12;17.23;;;11.40;;
70026;SDS011;57506;50.092;15.804;2023-04-24T06:49:41;21.42;;;11.95;;
70026;SDS011;57506;50.092;15.804;2023-04-24T06:52:07;17.10;;;11.38;;
70026;SDS011;57506;50.092;15.804;2023-04-24T06:54:32;16.50;;;10.93;;
70026;SDS011;57506;50.092;15.804;2023-04-24T06:56:58;16.90;;;11.57;;
70026;SDS011;57506;50.092;15.804;2023-04-24T06:59:26;16.50;;;11.65;;
70026;SDS011;57506;50.092;15.804;2023-04-24T07:01:52;16.98;;;11.02;;
70026;SDS011;57506;50.092;15.804;2023-04-24T07:04:18;19.10;;;11.07;;
70026;SDS011;57506;50.092;15.804;2023-04-24T07:06:47;16.63;;;10.95;;
70026;SDS011;57506;50.092;15.804;2023-04-24T07:09:13;17.33;;;10.90;;
70026;SDS011;57506;50.092;15.804;2023-04-24T07:11:39;14.93;;;10.55;;
70026;SDS011;57506;50.092;15.804;2023-04-24T07:14:06;17.05;;;11.43;;
70026;SDS011;57506;50.092;15.804;2023-04-24T07:16:32;18.60;;;11.43;;
70026;SDS011;57506;50.092;15.804;2023-04-24T07:18:57;17.40;;;11.50;;
70026;SDS011;57506;50.092;15.804;2023-04-24T07:21:23;19.48;;;11.25;;
70026;SDS011;57506;50.092;15.804;2023-04-24T07:23:49;15.27;;;11.10;;
70026;SDS011;57506;50.092;15.804;2023-04-24T07:26:15;17.85;;;11.57;;
70026;SDS011;57506;50.092;15.804;2023-04-24T07:28:40;15.73;;;11.37;;
70026;SDS011;57506;50.092;15.804;2023-04-24T07:31:06;16.15;;;11.40;;
70026;SDS011;57506;50.092;15.804;2023-04-24T07:33:33;17.83;;;10.93;;
70026;SDS011;57506;50.092;15.804;2023-04-24T07:35:59;17.73;;;11.07;;
70026;SDS011;57506;50.092;15.804;2023-04-24T07:38:25;17.52;;;11.13;;
70026;SDS011;57506;50.092;15.804;2023-04-24T07:40:51;15.65;;;10.93;;
70026;SDS011;57506;50.092;15.804;2023-04-24T07:43:17;16.42;;;11.20;;
70026;SDS011;57506;50.092;15.804;2023-04-24T07:45:45;17.13;;;10.77;;
70026;SDS011;57506;50.092;15.804;2023-04-24T07:48:10;21.88;;;10.73;;
70026;SDS011;57506;50.092;15.804;2023-04-24T07:50:38;15.93;;;10.52;;
70026;SDS011;57506;50.092;15.804;2023-04-24T07:53:04;14.20;;;9.80;;
70026;SDS011;57506;50.092;15.804;2023-04-24T07:55:30;14.80;;;9.33;;
70026;SDS011;57506;50.092;15.804;2023-04-24T07:57:55;13.57;;;9.50;;
70026;SDS011;57506;50.092;15.804;2023-04-24T08:00:21;13.57;;;9.50;;
70026;SDS011;57506;50.092;15.804;2023-04-24T08:02:46;13.25;;;9.07;;
70026;SDS011;57506;50.092;15.804;2023-04-24T08:05:12;14.50;;;8.60;;
70026;SDS011;57506;50.092;15.804;2023-04-24T08:07:38;10.10;;;5.17;;
70026;SDS011;57506;50.092;15.804;2023-04-24T08:10:03;17.50;;;9.30;;
70026;SDS011;57506;50.092;15.804;2023-04-24T08:12:30;7.68;;;4.07;;
70026;SDS011;57506;50.092;15.804;2023-04-24T08:14:56;5.40;;;3.10;;
70026;SDS011;57506;50.092;15.804;2023-04-24T08:17:21;9.50;;;3.10;;
70026;SDS011;57506;50.092;15.804;2023-04-24T08:19:47;6.63;;;3.30;;
70026;SDS011;57506;50.092;15.804;2023-04-24T08:22:14;6.17;;;3.03;;
70026;SDS011;57506;50.092;15.804;2023-04-24T08:24:40;9.02;;;3.28;;
70026;SDS011;57506;50.092;15.804;2023-04-24T08:27:06;5.57;;;2.90;;
70026;SDS011;57506;50.092;15.804;2023-04-24T08:29:31;5.65;;;2.72;;
70026;SDS011;57506;50.092;15.804;2023-04-24T08:31:57;4.97;;;2.73;;
70026;SDS011;57506;50.092;15.804;2023-04-24T08:34:23;10.38;;;2.38;;
70026;SDS011;57506;50.092;15.804;2023-04-24T08:36:48;6.20;;;2.60;;
70026;SDS011;57506;50.092;15.804;2023-04-24T08:39:14;5.45;;;2.25;;
70026;SDS011;57506;50.092;15.804;2023-04-24T08:41:43;5.18;;;2.67;;
70026;SDS011;57506;50.092;15.804;2023-04-24T08:44:10;6.47;;;2.93;;
70026;SDS011;57506;50.092;15.804;2023-04-24T08:46:39;6.53;;;3.38;;
70026;SDS011;57506;50.092;15.804;2023-04-24T08:49:05;5.35;;;2.85;;
70026;SDS011;57506;50.092;15.804;2023-04-24T08:51:31;6.67;;;3.57;;
70026;SDS011;57506;50.092;15.804;2023-04-24T08:53:57;6.93;;;3.28;;
70026;SDS011;57506;50.092;15.804;2023-04-24T08:56:23;9.43;;;3.53;;
70026;SDS011;57506;50.092;15.804;2023-04-24T08:58:53;5.95;;;3.28;;
70026;SDS011;57506;50.092;15.804;2023-04-24T09:01:19;6.18;;;3.00;;
70026;SDS011;57506;50.092;15.804;2023-04-24T09:03:46;6.07;;;3.50;;
70026;SDS011;57506;50.092;15.804;2023-04-24T09:06:14;7.25;;;3.42;;
70026;SDS011;57506;50.092;15.804;2023-04-24T09:08:42;7.83;;;3.07;;
70026;SDS011;57506;50.092;15.804;2023-04-24T09:11:10;7.22;;;3.20;;
70026;SDS011;57506;50.092;15.804;2023-04-24T09:13:37;9.23;;;2.97;;
70026;SDS011;57506;50.092;15.804;2023-04-24T09:16:03;7.13;;;2.75;;
70026;SDS011;57506;50.092;15.804;2023-04-24T09:18:29;6.85;;;3.28;;
70026;SDS011;57506;50.092;15.804;2023-04-24T09:21:01;6.33;;;3.30;;
70026;SDS011;57506;50.092;15.804;2023-04-24T09:23:28;6.57;;;3.17;;
70026;SDS011;57506;50.092;15.804;2023-04-24T09:25:55;9.25;;;3.65;;
70026;SDS011;57506;50.092;15.804;2023-04-24T09:28:25;5.97;;;3.40;;
70026;SDS011;57506;50.092;15.804;2023-04-24T09:31:09;7.30;;;3.50;;
70026;SDS011;57506;50.092;15.804;2023-04-24T09:33:35;6.63;;;3.30;;
70026;SDS011;57506;50.092;15.804;2023-04-24T09:36:02;6.32;;;3.25;;
70026;SDS011;57506;50.092;15.804;2023-04-24T09:38:37;7.05;;;3.20;;
70026;SDS011;57506;50.092;15.804;2023-04-24T09:41:07;7.73;;;3.50;;
70026;SDS011;57506;50.092;15.804;2023-04-24T09:43:38;6.15;;;3.20;;
70026;SDS011;57506;50.092;15.804;2023-04-24T09:46:07;6.35;;;2.72;;
70026;SDS011;57506;50.092;15.804;2023-04-24T09:48:37;8.20;;;3.30;;
70026;SDS011;57506;50.092;15.804;2023-04-24T09:51:03;11.35;;;2.60;;
70026;SDS011;57506;50.092;15.804;2023-04-24T09:53:36;5.68;;;2.88;;
70026;SDS011;57506;50.092;15.804;2023-04-24T09:56:03;6.93;;;3.00;;
70026;SDS011;57506;50.092;15.804;2023-04-24T09:58:37;6.13;;;2.90;;
70026;SDS011;57506;50.092;15.804;2023-04-24T10:01:03;6.50;;;3.03;;
70026;SDS011;57506;50.092;15.804;2023-04-24T10:03:32;9.48;;;3.35;;
70026;SDS011;57506;50.092;15.804;2023-04-24T10:06:02;5.20;;;2.40;;
70026;SDS011;57506;50.092;15.804;2023-04-24T10:08:34;7.13;;;3.10;;
70026;SDS011;57506;50.092;15.804;2023-04-24T10:11:01;7.18;;;2.55;;
70026;SDS011;57506;50.092;15.804;2023-04-24T10:13:27;7.07;;;2.42;;
70026;SDS011;57506;50.092;15.804;2023-04-24T10:15:53;4.85;;;2.40;;
70026;SDS011;57506;50.092;15.804;2023-04-24T10:18:19;5.10;;;2.50;;
70026;SDS011;57506;50.092;15.804;2023-04-24T10:20:47;7.83;;;2.33;;
70026;SDS011;57506;50.092;15.804;2023-04-24T10:23:13;6.93;;;2.60;;
70026;SDS011;57506;50.092;15.804;2023-04-24T10:25:40;5.88;;;2.35;;
70026;SDS011;57506;50.092;15.804;2023-04-24T10:28:06;5.57;;;2.25;;
70026;SDS011;57506;50.092;15.804;2023-04-24T10:30:32;5.60;;;2.40;;
70026;SDS011;57506;50.092;15.804;2023-04-24T10:33:03;4.95;;;2.30;;
70026;SDS011;57506;50.092;15.804;2023-04-24T10:35:36;6.10;;;2.50;;
70026;SDS011;57506;50.092;15.804;2023-04-24T10:38:15;6.22;;;2.35;;
70026;SDS011;57506;50.092;15.804;2023-04-24T10:40:47;5.10;;;2.33;;
70026;SDS011;57506;50.092;15.804;2023-04-24T10:43:13;5.07;;;2.40;;
70026;SDS011;57506;50.092;15.804;2023-04-24T10:45:59;6.55;;;2.50;;
70026;SDS011;57506;50.092;15.804;2023-04-24T10:48:29;5.18;;;2.30;;
70026;SDS011;57506;50.092;15.804;2023-04-24T10:50:55;5.33;;;2.40;;
70026;SDS011;57506;50.092;15.804;2023-04-24T10:53:22;5.13;;;2.20;;
70026;SDS011;57506;50.092;15.804;2023-04-24T10:55:49;5.30;;;2.20;;
70026;SDS011;57506;50.092;15.804;2023-04-24T10:58:18;5.15;;;2.13;;
70026;SDS011;57506;50.092;15.804;2023-04-24T11:00:55;5.00;;;1.60;;
70026;SDS011;57506;50.092;15.804;2023-04-24T11:03:31;4.63;;;1.75;;
70026;SDS011;57506;50.092;15.804;2023-04-24T11:06:06;4.07;;;1.80;;
70026;SDS011;57506;50.092;15.804;2023-04-24T11:10:59;5.68;;;1.95;;
70026;SDS011;57506;50.092;15.804;2023-04-24T11:27:06;5.35;;;1.50;;
70026;SDS011;57506;50.092;15.804;2023-04-24T11:32:34;5.00;;;1.92;;
70026;SDS011;57506;50.092;15.804;2023-04-24T11:35:06;4.63;;;1.90;;
70026;SDS011;57506;50.092;15.804;2023-04-24T11:37:44;4.03;;;1.52;;
70026;SDS011;57506;50.092;15.804;2023-04-24T11:40:12;4.43;;;1.45;;
70026;SDS011;57506;50.092;15.804;2023-04-24T11:42:41;4.03;;;1.57;;
70026;SDS011;57506;50.092;15.804;2023-04-24T11:45:18;4.70;;;1.70;;
70026;SDS011;57506;50.092;15.804;2023-04-24T11:47:47;4.43;;;1.50;;
70026;SDS011;57506;50.092;15.804;2023-04-24T11:50:14;4.60;;;1.00;;
70026;SDS011;57506;50.092;15.804;2023-04-24T11:52:42;2.65;;;0.82;;
70026;SDS011;57506;50.092;15.804;2023-04-24T11:57:43;3.97;;;0.90;;
70026;SDS011;57506;50.092;15.804;2023-04-24T12:02:46;3.57;;;0.87;;
70026;SDS011;57506;50.092;15.804;2023-04-24T12:05:22;4.25;;;1.00;;
70026;SDS011;57506;50.092;15.804;2023-04-24T12:07:52;2.92;;;0.85;;
70026;SDS011;57506;50.092;15.804;2023-04-24T12:10:21;4.25;;;1.10;;
70026;SDS011;57506;50.092;15.804;2023-04-24T12:12:48;4.10;;;1.02;;
70026;SDS011;57506;50.092;15.804;2023-04-24T12:15:16;3.33;;;0.90;;
70026;SDS011;57506;50.092;15.804;2023-04-24T12:17:43;2.88;;;1.05;;
70026;SDS011;57506;50.092;15.804;2023-04-24T12:20:09;6.63;;;1.15;;
70026;SDS011;57506;50.092;15.804;2023-04-24T12:25:16;3.58;;;1.00;;
70026;SDS011;57506;50.092;15.804;2023-04-24T12:27:44;3.17;;;0.70;;
70026;SDS011;57506;50.092;15.804;2023-04-24T12:30:17;4.25;;;0.75;;
70026;SDS011;57506;50.092;15.804;2023-04-24T12:32:44;2.92;;;1.05;;
70026;SDS011;57506;50.092;15.804;2023-04-24T12:35:11;3.53;;;0.87;;
70026;SDS011;57506;50.092;15.804;2023-04-24T12:37:37;4.32;;;0.80;;
70026;SDS011;57506;50.092;15.804;2023-04-24T12:40:08;3.90;;;0.70;;
70026;SDS011;57506;50.092;15.804;2023-04-24T12:42:36;5.35;;;0.93;;
70026;SDS011;57506;50.092;15.804;2023-04-24T12:45:07;3.60;;;0.80;;
70026;SDS011;57506;50.092;15.804;2023-04-24T12:47:33;3.20;;;0.50;;
70026;SDS011;57506;50.092;15.804;2023-04-24T12:49:59;2.97;;;0.70;;
70026;SDS011;57506;50.092;15.804;2023-04-24T12:52:26;4.30;;;0.90;;
70026;SDS011;57506;50.092;15.804;2023-04-24T12:54:54;3.75;;;0.70;;
70026;SDS011;57506;50.092;15.804;2023-04-24T12:57:25;2.55;;;0.50;;
70026;SDS011;57506;50.092;15.804;2023-04-24T12:59:55;5.50;;;0.80;;
70026;SDS011;57506;50.092;15.804;2023-04-24T13:02:25;2.92;;;0.70;;
70026;SDS011;57506;50.092;15.804;2023-04-24T13:04:52;2.88;;;0.60;;
70026;SDS011;57506;50.092;15.804;2023-04-24T13:07:18;2.97;;;0.70;;
70026;SDS011;57506;50.092;15.804;2023-04-24T13:09:43;2.60;;;0.63;;
70026;SDS011;57506;50.092;15.804;2023-04-24T13:12:10;3.15;;;0.60;;
70026;SDS011;57506;50.092;15.804;2023-04-24T13:14:37;4.00;;;0.55;;
70026;SDS011;57506;50.092;15.804;2023-04-24T13:17:03;6.78;;;0.50;;
70026;SDS011;57506;50.092;15.804;2023-04-24T13:19:29;2.80;;;0.53;;
70026;SDS011;57506;50.092;15.804;2023-04-24T13:22:00;3.58;;;0.70;;
70026;SDS011;57506;50.092;15.804;2023-04-24T13:24:26;3.28;;;0.50;;
70026;SDS011;57506;50.092;15.804;2023-04-24T13:26:54;2.20;;;0.43;;
70026;SDS011;57506;50.092;15.804;2023-04-24T13:29:21;2.65;;;0.52;;
70026;SDS011;57506;50.092;15.804;2023-04-24T13:31:49;3.33;;;0.50;;
70026;SDS011;57506;50.092;15.804;2023-04-24T13:34:15;2.43;;;0.50;;
70026;SDS011;57506;50.092;15.804;2023-04-24T13:36:41;3.03;;;0.60;;
70026;SDS011;57506;50.092;15.804;2023-04-24T13:39:07;2.07;;;0.40;;
70026;SDS011;57506;50.092;15.804;2023-04-24T13:41:32;2.67;;;0.30;;
70026;SDS011;57506;50.092;15.804;2023-04-24T13:43:59;2.95;;;0.60;;
70026;SDS011;57506;50.092;15.804;2023-04-24T13:46:24;2.87;;;0.50;;
70026;SDS011;57506;50.092;15.804;2023-04-24T13:48:50;2.08;;;0.40;;
70026;SDS011;57506;50.092;15.804;2023-04-24T13:51:16;4.23;;;0.40;;
70026;SDS011;57506;50.092;15.804;2023-04-24T13:53:42;3.50;;;0.70;;
70026;SDS011;57506;50.092;15.804;2023-04-24T13:56:07;2.70;;;0.50;;
70026;SDS011;57506;50.092;15.804;2023-04-24T13:58:34;2.50;;;0.60;;
70026;SDS011;57506;50.092;15.804;2023-04-24T14:01:03;2.72;;;0.68;;
70026;SDS011;57506;50.092;15.804;2023-04-24T14:03:29;2.80;;;0.60;;
70026;SDS011;57506;50.092;15.804;2023-04-24T14:05:55;2.95;;;0.50;;
70026;SDS011;57506;50.092;15.804;2023-04-24T14:08:21;3.37;;;0.60;;
70026;SDS011;57506;50.092;15.804;2023-04-24T14:10:47;2.83;;;0.40;;
70026;SDS011;57506;50.092;15.804;2023-04-24T14:13:12;2.30;;;0.40;;
70026;SDS011;57506;50.092;15.804;2023-04-24T14:15:38;2.60;;;0.50;;
70026;SDS011;57506;50.092;15.804;2023-04-24T14:18:04;3.58;;;0.50;;
70026;SDS011;57506;50.092;15.804;2023-04-24T14:20:30;2.60;;;0.40;;
70026;SDS011;57506;50.092;15.804;2023-04-24T14:22:56;2.40;;;0.47;;
70026;SDS011;57506;50.092;15.804;2023-04-24T14:25:24;2.83;;;0.60;;
70026;SDS011;57506;50.092;15.804;2023-04-24T14:27:50;3.03;;;0.57;;
70026;SDS011;57506;50.092;15.804;2023-04-24T14:30:16;3.60;;;0.60;;
70026;SDS011;57506;50.092;15.804;2023-04-24T14:32:42;2.80;;;0.60;;
70026;SDS011;57506;50.092;15.804;2023-04-24T14:35:07;3.17;;;0.60;;
70026;SDS011;57506;50.092;15.804;2023-04-24T14:37:33;3.17;;;0.70;;
70026;SDS011;57506;50.092;15.804;2023-04-24T14:39:59;3.85;;;0.95;;
70026;SDS011;57506;50.092;15.804;2023-04-24T14:42:25;2.77;;;0.70;;
70026;SDS011;57506;50.092;15.804;2023-04-24T14:44:50;3.00;;;0.55;;